< < Back
Terminal Aerodrome Forecast


Current Version              Previous Versions:   1  2  3  4  5  6  7  8  9  

Terminal Aerodrome Forecast

707
FTUS42 KJAX 231700
TAFGNV
TAF
KGNV 231721Z 2318/2418 26006KT P6SM VCTS SCT030CB
     FM232000 24007KT P6SM VCTS BKN040CB
     FM240200 24004KT P6SM SCT250
      TEMPO 2408/2412 4SM BR
     FM241400 25006KT P6SM SCT020 SCT250=

Latest METAR

092
SAUS70 KWBC 232200 RRB
MTRGNV
METAR KGNV 232153Z VRB05KT 10SM FEW050 BKN085 OVC110 31/23 A3000 RMK AO2
RAB30E40 SLP157 P0000 T03060233


USA.gov is the U.S. government's official web portal to all federal, state and local government web resources and services.